Time;durP1;ratioP1;P1;durP2;ratioP2;P2;SDS_P1;SDS_P2;PMS_P1;PMS_P2;Temp;Humidity;BMP_temperature;BMP_pressure;BME280_temperature;BME280_humidity;BME280_pressure;Samples;Min_cycle;Max_cycle;Signal;HPM_P1;HPM_P2
2022/11/24 09:36:30;;;;;;;3.97;2.22;;;;;;;5.88;88.67;96288.06;2084338;28;20576;-63
2022/11/24 09:37:32;;;;;;;2.50;1.80;;;;;;;5.98;88.89;96319.69;2086413;28;20196;-63
2022/11/24 09:38:34;;;;;;;2.15;1.30;;;;;;;5.93;88.72;96319.00;2084611;28;20201;-63
2022/11/24 09:39:35;;;;;;;5.80;0.80;;;;;;;5.82;89.18;96306.41;2076610;28;20222;-63
2022/11/24 09:40:37;;;;;;;3.40;1.90;;;;;;;5.90;90.13;96322.53;2087458;28;20672;-63
2022/11/24 09:41:38;;;;;;;3.55;1.67;;;;;;;5.94;90.02;96318.09;2089266;28;20258;-64
2022/11/24 09:42:53;;;;;;;3.67;1.55;;;;;;;5.88;90.41;96311.38;2081682;28;20224;-64
2022/11/24 09:44:20;;;;;;;3.88;2.00;;;;;;;5.93;90.58;96322.47;2079299;28;20215;-63
2022/11/24 09:45:34;;;;;;;3.97;1.75;;;;;;;5.95;91.28;96337.94;2079491;28;20201;-64
2022/11/24 09:47:05;;;;;;;2.45;1.05;;;;;;;5.93;90.33;96330.22;2081854;28;20285;-64
2022/11/24 09:48:19;;;;;;;3.95;1.90;;;;;;;5.97;89.83;96334.41;2077357;28;20201;-64
2022/11/24 09:49:41;;;;;;;2.85;1.25;;;;;;;6.14;89.83;96338.25;2091717;28;20253;-64
2022/11/24 09:50:48;;;;;;;3.45;2.10;;;;;;;6.28;89.33;96328.28;2082951;28;20565;-64
2022/11/24 09:51:52;;;;;;;3.15;1.42;;;;;;;6.63;88.15;96344.44;2079407;28;20315;-64
2022/11/24 09:52:59;;;;;;;4.45;2.63;;;;;;;6.59;87.51;96345.44;2078909;28;20201;-64
2022/11/24 09:54:12;;;;;;;4.80;2.45;;;;;;;6.58;87.72;96341.13;2078148;28;20231;-64
2022/11/24 09:55:27;;;;;;;3.58;1.40;;;;;;;6.59;87.43;96344.56;2080264;28;20198;-63
2022/11/24 09:56:33;;;;;;;4.50;1.45;;;;;;;6.54;87.65;96342.16;2080038;28;20248;-64
2022/11/24 09:57:39;;;;;;;3.25;1.85;;;;;;;6.42;87.79;96339.94;2087857;28;20243;-64
2022/11/24 09:58:53;;;;;;;1.60;0.80;;;;;;;6.29;88.17;96324.78;2085451;28;20681;-64
2022/11/24 10:52:35;;;;;;;6.53;1.75;;;;;;;7.46;86.95;96351.03;2086242;28;20576;-65
2022/11/24 10:53:39;;;;;;;29.02;1.90;;;;;;;8.29;82.71;96328.78;2082712;28;20209;-65
2022/11/24 10:54:56;;;;;;;16.33;2.47;;;;;;;7.95;82.87;96345.72;2069785;28;20250;-65
2022/11/24 10:56:00;;;;;;;6.65;1.45;;;;;;;8.26;82.14;96343.66;2062814;28;20203;-65
2022/11/24 10:57:02;;;;;;;10.35;2.20;;;;;;;8.42;80.68;96346.50;2065677;28;20695;-66
2022/11/24 10:58:15;;;;;;;5.15;2.25;;;;;;;8.41;80.29;96347.41;2065102;28;20588;-66
2022/11/24 10:59:35;;;;;;;4.53;1.38;;;;;;;9.08;78.35;96350.72;2065622;28;20202;-66
2022/11/24 11:00:37;;;;;;;6.82;1.90;;;;;;;8.93;77.98;96350.47;2062757;28;20535;-66
2022/11/24 11:01:39;;;;;;;7.22;1.70;;;;;;;8.64;79.77;96342.13;2066481;28;20203;-66
2022/11/24 11:02:40;;;;;;;11.93;2.58;;;;;;;9.77;77.29;96342.41;2062910;28;20767;-66
2022/11/24 11:03:46;;;;;;;7.18;2.13;;;;;;;10.19;74.78;96342.22;2071179;28;20194;-66
2022/11/24 11:04:48;;;;;;;10.45;2.50;;;;;;;9.88;75.64;96336.69;2069516;28;20225;-64
2022/11/24 11:05:53;;;;;;;14.63;3.13;;;;;;;9.95;74.48;96337.25;2074024;28;20293;-65
2022/11/24 11:07:17;;;;;;;12.07;2.53;;;;;;;9.84;74.96;96342.97;2073599;28;20298;-66
2022/11/24 11:08:25;;;;;;;6.25;1.98;;;;;;;9.81;74.29;96298.78;2069055;28;20305;-66
2022/11/24 11:09:26;;;;;;;8.93;2.05;;;;;;;9.69;74.60;96343.66;2065621;28;20223;-66
2022/11/24 11:10:27;;;;;;;8.27;2.30;;;;;;;10.87;71.49;96337.16;2064564;28;20350;-65
2022/11/24 11:11:29;;;;;;;9.25;2.95;;;;;;;10.80;70.88;96335.78;2065724;28;20204;-66
2022/11/24 11:12:30;;;;;;;6.97;2.40;;;;;;;11.57;68.81;96330.97;2066165;28;20211;-66
2022/11/24 11:13:56;;;;;;;22.17;5.35;;;;;;;10.19;71.86;96335.22;2066624;28;20208;-66
2022/11/24 11:15:25;;;;;;;11.40;2.08;;;;;;;10.10;72.10;96346.13;2056106;28;20258;-65
2022/11/24 11:17:03;;;;;;;16.95;2.08;;;;;;;10.94;70.28;96342.91;2065750;28;20203;-63
2022/11/24 11:18:05;;;;;;;16.33;3.00;;;;;;;11.73;67.98;96333.56;2058787;28;20298;-63
2022/11/24 11:19:37;;;;;;;16.75;3.85;;;;;;;10.73;69.70;96363.97;2063034;28;20242;-63
2022/11/24 11:21:01;;;;;;;8.93;2.40;;;;;;;10.18;71.48;96362.25;2064599;28;20562;-63
2022/11/24 11:22:04;;;;;;;11.88;2.83;;;;;;;9.77;72.80;96363.25;2073486;28;20208;-63
2022/11/24 11:23:22;;;;;;;12.82;3.50;;;;;;;9.50;73.71;96356.69;2069957;28;20787;-63
2022/11/24 11:24:26;;;;;;;6.50;1.70;;;;;;;9.03;75.74;96360.47;2070369;28;20246;-63
2022/11/24 11:25:35;;;;;;;19.00;4.25;;;;;;;9.20;75.78;96362.38;2069689;28;20239;-62
2022/11/24 11:26:41;;;;;;;20.73;3.05;;;;;;;9.53;74.84;96364.38;2064825;28;20258;-63
2022/11/24 11:27:43;;;;;;;11.18;2.42;;;;;;;8.94;75.67;96343.50;2067069;28;20255;-63
2022/11/24 11:29:07;;;;;;;15.27;2.97;;;;;;;9.07;75.72;96354.25;2066042;28;20199;-63
2022/11/24 11:30:28;;;;;;;11.93;2.88;;;;;;;9.33;74.60;96363.50;2065086;28;20232;-63
2022/11/24 11:32:16;;;;;;;9.40;1.80;;;;;;;10.01;72.45;96351.78;2065384;28;20253;-63
2022/11/24 11:33:37;;;;;;;7.38;1.92;;;;;;;10.90;69.46;96355.28;2064615;28;20252;-62
2022/11/24 11:35:02;;;;;;;9.82;2.30;;;;;;;11.96;66.34;96352.44;2063661;28;20224;-63
2022/11/24 11:36:09;;;;;;;11.85;1.77;;;;;;;12.28;64.82;96345.44;2062657;28;20204;-63
2022/11/24 11:37:15;;;;;;;9.30;2.13;;;;;;;12.71;64.02;96358.69;2067104;28;20621;-63
2022/11/24 11:38:18;;;;;;;14.13;2.28;;;;;;;12.33;63.08;96347.75;2062246;28;20205;-63
2022/11/24 11:39:30;;;;;;;13.20;2.83;;;;;;;12.40;63.39;96347.34;2063798;28;20359;-63
2022/11/24 11:40:33;;;;;;;13.93;1.77;;;;;;;12.09;63.49;96356.09;2064822;28;20601;-62
2022/11/24 11:41:39;;;;;;;8.73;2.13;;;;;;;12.55;63.76;96363.94;2065295;28;20229;-63
2022/11/24 11:42:46;;;;;;;10.02;2.60;;;;;;;12.50;62.86;96357.31;2066865;28;20288;-65
2022/11/24 11:44:11;;;;;;;12.98;3.22;;;;;;;12.46;63.10;96354.00;2066497;28;20209;-64
2022/11/24 11:45:27;;;;;;;14.40;3.90;;;;;;;12.24;63.36;96347.38;2067073;28;20202;-62
2022/11/24 11:46:31;;;;;;;12.10;3.05;;;;;;;12.61;62.11;96348.81;2065658;28;20205;-65
2022/11/24 11:47:32;;;;;;;11.65;2.42;;;;;;;12.44;62.77;96365.50;2065323;28;20260;-65
2022/11/24 11:48:37;;;;;;;5.38;1.55;;;;;;;12.64;62.85;96365.19;2065549;28;20195;-65
2022/11/24 11:49:46;;;;;;;11.13;1.80;;;;;;;12.94;61.40;96371.38;2064747;28;20776;-65
2022/11/24 11:51:26;;;;;;;12.23;2.58;;;;;;;12.88;62.08;96362.09;2065206;28;20255;-65
2022/11/24 11:52:54;;;;;;;9.23;2.15;;;;;;;13.60;60.70;96356.97;2064157;28;20301;-65
2022/11/24 11:54:10;;;;;;;9.73;2.50;;;;;;;13.65;59.51;96368.03;2058232;28;20262;-65
2022/11/24 11:55:25;;;;;;;6.70;1.42;;;;;;;13.53;60.05;96364.38;2066203;28;20324;-66
2022/11/24 11:56:35;;;;;;;14.27;5.03;;;;;;;12.66;61.81;96363.34;2064665;28;20230;-65
2022/11/24 11:57:55;;;;;;;12.38;5.50;;;;;;;11.33;65.18;96361.88;2066332;28;20657;-65
2022/11/24 11:59:12;;;;;;;11.15;2.10;;;;;;;11.62;63.21;96365.56;2065399;28;20222;-64
2022/11/24 12:00:17;;;;;;;16.88;1.55;;;;;;;10.47;65.93;96365.25;2065791;28;20772;-66
2022/11/24 12:01:54;;;;;;;12.63;3.28;;;;;;;9.52;68.94;96371.34;2069080;28;20214;-64
2022/11/24 12:03:36;;;;;;;10.73;1.77;;;;;;;9.14;71.54;96379.09;2066359;28;20203;-67
2022/11/24 12:04:41;;;;;;;8.40;1.70;;;;;;;9.01;72.55;96370.13;2050036;28;20594;-65
2022/11/24 12:05:45;;;;;;;9.77;2.13;;;;;;;8.72;72.33;96370.44;2066337;28;20683;-65
2022/11/24 12:06:47;;;;;;;14.98;1.80;;;;;;;8.72;72.74;96374.81;2067360;28;20208;-65
2022/11/24 12:08:16;;;;;;;13.80;2.13;;;;;;;9.35;71.03;96373.88;2056654;28;20233;-65
2022/11/24 12:09:40;;;;;;;16.50;2.33;;;;;;;9.25;71.87;96381.25;2058322;28;20221;-66
2022/11/24 12:10:52;;;;;;;14.10;2.40;;;;;;;8.84;73.09;96376.91;2061751;28;20862;-65
2022/11/24 12:12:25;;;;;;;17.17;2.00;;;;;;;8.60;73.39;96369.19;2060315;28;20219;-65
2022/11/24 12:13:42;;;;;;;14.15;2.13;;;;;;;9.56;70.91;96385.09;2060012;28;20303;-65
2022/11/24 12:14:59;;;;;;;8.02;2.00;;;;;;;9.39;70.81;96375.44;2060555;28;20256;-65
2022/11/24 12:16:26;;;;;;;8.18;1.85;;;;;;;8.71;72.87;96379.16;2060741;28;20211;-65
2022/11/24 12:18:11;;;;;;;9.10;2.67;;;;;;;8.93;72.99;96381.72;2060462;28;20301;-66
2022/11/24 12:20:02;;;;;;;11.15;2.92;;;;;;;8.78;73.55;96390.16;2058913;28;20272;-66
2022/11/24 12:21:36;;;;;;;7.30;2.17;;;;;;;9.23;71.96;96390.88;2058856;28;20227;-65
2022/11/24 12:22:48;;;;;;;11.23;2.15;;;;;;;9.91;68.64;96395.69;2060342;28;20208;-66
2022/11/24 12:24:26;;;;;;;10.30;2.17;;;;;;;9.14;71.48;96402.53;2060534;28;20235;-65
2022/11/24 12:25:39;;;;;;;7.20;2.25;;;;;;;8.90;72.17;96399.22;2056512;28;20223;-66
2022/11/24 12:26:44;;;;;;;10.00;1.92;;;;;;;8.84;72.19;96402.94;2058976;28;20539;-65
2022/11/24 12:28:23;;;;;;;16.42;2.53;;;;;;;8.60;72.40;96387.41;2067635;28;20245;-65
2022/11/24 12:29:56;;;;;;;12.77;3.58;;;;;;;8.36;73.23;96401.38;2068395;28;20582;-65
2022/11/24 12:31:06;;;;;;;13.68;2.10;;;;;;;8.60;72.41;96374.41;2061697;28;20203;-65
2022/11/24 12:32:26;;;;;;;15.65;2.03;;;;;;;8.48;72.79;96398.31;2061101;28;20290;-65
2022/11/24 12:33:59;;;;;;;14.10;1.55;;;;;;;8.82;72.69;96391.72;2059147;28;20230;-66
2022/11/24 12:35:04;;;;;;;10.45;2.13;;;;;;;9.73;68.61;96393.00;2056248;28;20235;-65
2022/11/24 12:36:31;;;;;;;9.98;1.80;;;;;;;10.87;66.97;96394.63;2057879;28;20204;-66
2022/11/24 12:37:50;;;;;;;7.35;2.35;;;;;;;11.29;64.59;96387.31;2059993;28;20321;-65
2022/11/24 12:38:58;;;;;;;10.48;2.15;;;;;;;11.80;63.19;96395.09;2061722;28;20637;-66
2022/11/24 12:40:21;;;;;;;11.82;3.50;;;;;;;10.45;65.77;96390.59;2060053;28;21000;-65
2022/11/24 12:41:34;;;;;;;14.77;2.70;;;;;;;11.31;64.47;96390.66;2060391;28;20231;-65
2022/11/24 12:43:12;;;;;;;10.95;2.78;;;;;;;11.39;63.41;96390.31;2061130;28;20209;-65
2022/11/24 12:44:30;;;;;;;15.80;3.05;;;;;;;11.57;62.21;96378.84;2059857;28;20209;-65
2022/11/24 12:45:59;;;;;;;17.95;3.38;;;;;;;11.71;62.15;96380.75;2059500;28;20201;-66
2022/11/24 12:47:15;;;;;;;11.52;2.60;;;;;;;12.02;61.22;96384.34;2050049;28;20202;-65
2022/11/24 12:48:21;;;;;;;7.50;1.98;;;;;;;11.99;61.06;96386.31;2067248;28;20205;-65
2022/11/24 12:49:23;;;;;;;9.27;2.00;;;;;;;11.95;61.08;96382.09;2063627;28;20857;-66
2022/11/24 12:50:29;;;;;;;11.88;3.28;;;;;;;12.25;61.13;96384.84;2067425;28;20202;-65
2022/11/24 12:51:57;;;;;;;14.13;2.35;;;;;;;12.32;61.02;96374.91;2065853;28;20281;-66
2022/11/24 12:53:04;;;;;;;11.43;3.40;;;;;;;12.70;60.80;96374.50;2061609;28;20218;-66
2022/11/24 12:54:13;;;;;;;12.18;2.50;;;;;;;12.54;60.13;96379.75;2067114;28;20197;-66
2022/11/24 12:55:19;;;;;;;12.30;2.35;;;;;;;12.79;60.51;96376.59;2064944;28;20203;-66
2022/11/24 12:56:39;;;;;;;7.88;2.42;;;;;;;13.01;59.61;96384.03;2058003;28;20880;-67
2022/11/24 12:57:47;;;;;;;13.05;2.30;;;;;;;13.38;59.04;96381.03;2061350;28;20286;-67
2022/11/24 12:59:22;;;;;;;11.82;3.63;;;;;;;13.12;58.44;96383.41;2061100;28;20338;-67
2022/11/24 13:00:42;;;;;;;9.07;2.55;;;;;;;12.94;59.08;96387.09;2060718;28;20216;-66
2022/11/24 13:01:59;;;;;;;9.32;3.15;;;;;;;13.23;59.92;96385.41;2062036;28;20655;-67
2022/11/24 13:03:34;;;;;;;6.88;1.95;;;;;;;13.35;58.63;96383.81;2059988;28;20252;-66
2022/11/24 13:04:51;;;;;;;11.57;2.60;;;;;;;13.54;58.39;96396.69;2060249;28;20219;-67
2022/11/24 13:06:26;;;;;;;9.30;1.88;;;;;;;13.49;58.05;96396.97;2060475;28;20203;-66
2022/11/24 13:07:47;;;;;;;13.43;2.28;;;;;;;13.52;58.68;96394.19;2056845;28;20203;-67
2022/11/24 13:08:49;;;;;;;11.55;2.60;;;;;;;13.28;57.85;96393.84;2059926;28;20202;-66
2022/11/24 13:10:22;;;;;;;15.85;1.95;;;;;;;12.90;59.25;96397.75;2060313;28;20798;-67
2022/11/24 13:11:46;;;;;;;9.63;2.20;;;;;;;11.41;62.20;96397.13;2058941;28;20359;-66
2022/11/24 13:12:59;;;;;;;16.50;2.42;;;;;;;10.82;63.86;96407.09;2056564;28;20218;-67
2022/11/24 13:14:13;;;;;;;12.38;2.30;;;;;;;11.57;62.56;96407.63;2057828;28;20203;-65
2022/11/24 13:15:15;;;;;;;7.60;2.15;;;;;;;11.09;63.39;96412.69;2060958;28;20568;-66
2022/11/24 13:16:55;;;;;;;12.68;2.85;;;;;;;10.16;65.27;96407.59;2062020;28;20563;-66
2022/11/24 13:18:46;;;;;;;8.88;2.13;;;;;;;11.08;63.73;96418.84;2059817;28;20764;-66
2022/11/24 13:19:48;;;;;;;7.97;1.42;;;;;;;10.90;64.24;96414.53;2059555;28;20223;-66
2022/11/24 13:20:49;;;;;;;9.93;2.05;;;;;;;10.51;64.33;96423.38;2059488;28;20294;-65
2022/11/24 13:22:06;;;;;;;6.05;1.60;;;;;;;10.47;64.32;96422.69;2056529;28;20240;-66
2022/11/24 13:23:23;;;;;;;10.90;1.75;;;;;;;11.30;63.13;96422.13;2057144;28;20198;-65
2022/11/24 13:24:29;;;;;;;12.85;2.72;;;;;;;11.65;61.87;96417.69;2060360;28;20245;-66
2022/11/24 13:25:33;;;;;;;13.75;2.47;;;;;;;10.77;63.99;96416.91;2059638;28;20210;-66
2022/11/24 13:26:41;;;;;;;7.55;1.90;;;;;;;10.34;65.68;96422.41;2059956;28;20191;-66
2022/11/24 13:27:45;;;;;;;8.48;2.10;;;;;;;10.12;65.81;96419.97;2059821;28;20213;-66
2022/11/24 13:29:31;;;;;;;12.88;2.20;;;;;;;9.80;67.35;96424.84;2058534;28;20240;-66
2022/11/24 13:30:33;;;;;;;14.23;2.45;;;;;;;9.68;67.98;96426.25;2051756;28;20252;-66
2022/11/24 13:31:34;;;;;;;10.10;2.33;;;;;;;9.74;68.63;96427.78;2061279;28;20198;-66
2022/11/24 13:32:36;;;;;;;14.75;2.97;;;;;;;9.66;68.49;96425.47;2067952;28;20222;-66
2022/11/24 13:33:41;;;;;;;10.80;2.03;;;;;;;9.52;68.39;96423.47;2067060;28;20711;-66
2022/11/24 13:34:42;;;;;;;12.88;2.58;;;;;;;9.53;68.46;96424.34;2058604;28;20604;-65
2022/11/24 13:36:02;;;;;;;9.15;2.63;;;;;;;9.55;69.10;96425.97;2059710;28;20241;-66
2022/11/24 13:37:23;;;;;;;12.18;2.38;;;;;;;9.57;69.46;96423.28;2063735;28;20209;-67
2022/11/24 13:39:00;;;;;;;10.20;2.38;;;;;;;9.24;69.18;96414.28;2064817;28;20208;-65
2022/11/24 13:40:11;;;;;;;9.13;2.55;;;;;;;9.69;68.93;96425.34;2056994;28;20427;-66
2022/11/24 13:41:31;;;;;;;10.73;2.63;;;;;;;10.46;66.53;96423.59;2061079;28;20277;-65
2022/11/24 13:42:56;;;;;;;8.32;2.30;;;;;;;10.51;65.98;96418.16;2059468;28;20201;-66
2022/11/24 13:44:12;;;;;;;14.88;2.80;;;;;;;11.04;64.56;96413.84;2059798;28;20234;-66
2022/11/24 13:45:38;;;;;;;6.82;2.63;;;;;;;11.07;63.62;96413.69;2060016;28;20257;-65
2022/11/24 13:46:59;;;;;;;9.68;2.10;;;;;;;11.06;64.58;96414.63;2066361;28;20198;-66
2022/11/24 13:48:26;;;;;;;11.02;2.22;;;;;;;11.37;63.45;96413.88;2061169;28;20233;-66
2022/11/24 13:49:41;;;;;;;12.50;2.08;;;;;;;11.41;62.72;96412.81;2056571;28;20222;-65
2022/11/24 13:50:49;;;;;;;10.75;2.88;;;;;;;11.15;62.74;96408.06;2060726;28;20204;-65
2022/11/24 13:52:35;;;;;;;8.30;2.10;;;;;;;10.88;62.90;96388.50;2059025;28;20700;-65
2022/11/24 13:53:44;;;;;;;11.57;3.00;;;;;;;11.16;63.05;96392.31;2059488;28;20215;-65
2022/11/24 13:54:48;;;;;;;8.40;2.00;;;;;;;11.44;62.88;96407.41;2059327;28;20248;-66
2022/11/24 13:55:56;;;;;;;9.13;2.50;;;;;;;11.49;62.22;96395.88;2058505;28;20240;-66
2022/11/24 13:57:31;;;;;;;7.18;1.83;;;;;;;11.61;61.76;96405.69;2056876;28;20720;-66
2022/11/24 13:58:43;;;;;;;19.85;2.47;;;;;;;11.84;61.27;96401.84;2058991;28;20209;-66
2022/11/24 13:59:45;;;;;;;13.48;2.50;;;;;;;12.05;60.84;96401.69;2057690;28;20226;-66
2022/11/24 14:01:09;;;;;;;5.70;1.60;;;;;;;11.85;60.93;96405.34;2058712;28;20693;-66
2022/11/24 14:02:22;;;;;;;7.25;2.10;;;;;;;11.36;62.59;96393.06;2058239;28;20365;-66
2022/11/24 14:03:28;;;;;;;10.18;1.77;;;;;;;11.71;61.94;96404.28;2059416;28;20218;-66
2022/11/24 14:04:31;;;;;;;7.65;2.00;;;;;;;11.92;61.38;96406.66;2067405;28;20304;-66
2022/11/24 14:05:49;;;;;;;8.60;2.45;;;;;;;11.92;61.26;96401.44;2064563;28;20210;-66
2022/11/24 14:06:59;;;;;;;16.05;3.08;;;;;;;11.88;61.59;96403.41;2056812;28;20286;-66
2022/11/24 14:08:18;;;;;;;12.10;3.20;;;;;;;12.02;60.78;96402.66;2065370;28;20421;-66
2022/11/24 14:09:39;;;;;;;10.60;2.20;;;;;;;12.11;60.86;96403.09;2060679;28;20782;-66
2022/11/24 14:10:42;;;;;;;10.30;2.25;;;;;;;12.19;60.05;96399.13;2057936;28;20202;-66
2022/11/24 14:11:53;;;;;;;10.73;2.20;;;;;;;12.30;59.81;96405.53;2059479;28;20202;-66
2022/11/24 14:13:23;;;;;;;15.63;2.45;;;;;;;12.31;59.77;96396.78;2059489;28;20286;-66
2022/11/24 14:14:24;;;;;;;9.50;2.28;;;;;;;12.16;59.99;96399.28;2059330;28;20678;-66
2022/11/24 14:15:32;;;;;;;11.20;2.35;;;;;;;12.25;60.14;96395.31;2056204;28;20206;-66
2022/11/24 14:16:34;;;;;;;8.57;2.08;;;;;;;12.31;59.44;96402.00;2058135;28;20190;-66
2022/11/24 14:17:36;;;;;;;11.18;2.20;;;;;;;11.66;60.38;96410.69;2067398;28;20234;-66
2022/11/24 14:18:40;;;;;;;11.85;2.40;;;;;;;11.49;60.90;96409.81;2066193;28;20546;-66
2022/11/24 14:19:43;;;;;;;8.48;2.42;;;;;;;11.54;61.44;96399.09;2060882;28;20290;-66
2022/11/24 14:20:45;;;;;;;7.28;2.30;;;;;;;11.68;61.37;96398.38;2060542;28;20210;-66
2022/11/24 14:21:46;;;;;;;9.85;2.40;;;;;;;11.57;61.30;96409.41;2055907;28;20203;-66
2022/11/24 14:22:48;;;;;;;10.63;2.47;;;;;;;11.51;61.54;96392.25;2069189;28;20641;-66
2022/11/24 14:23:59;;;;;;;8.63;2.10;;;;;;;11.55;61.83;96399.03;2062566;28;20306;-66
2022/11/24 14:25:02;;;;;;;11.88;2.25;;;;;;;11.81;61.45;96416.88;2059052;28;20261;-66
2022/11/24 14:26:03;;;;;;;21.20;3.20;;;;;;;11.69;61.43;96406.13;2061700;28;20683;-66
2022/11/24 14:27:13;;;;;;;22.58;3.22;;;;;;;11.66;61.50;96415.94;2060214;28;20327;-66
2022/11/24 14:28:22;;;;;;;11.40;2.72;;;;;;;11.90;61.56;96421.63;2059486;28;20552;-66
2022/11/24 14:29:26;;;;;;;9.90;2.40;;;;;;;11.71;61.23;96421.75;2059353;28;20235;-66
2022/11/24 14:30:28;;;;;;;12.20;2.15;;;;;;;11.68;61.85;96417.53;2059673;28;20200;-66
2022/11/24 14:31:29;;;;;;;18.00;2.63;;;;;;;11.52;62.04;96409.63;2059324;28;20195;-67
2022/11/24 14:32:31;;;;;;;8.82;1.75;;;;;;;11.52;61.77;96414.88;2060163;28;20733;-66
2022/11/24 14:33:32;;;;;;;8.93;2.20;;;;;;;11.44;62.53;96411.81;2058828;28;20198;-66
2022/11/24 14:34:34;;;;;;;9.57;1.73;;;;;;;11.31;62.17;96413.38;2059702;28;20884;-65
2022/11/24 14:35:42;;;;;;;8.80;1.88;;;;;;;11.13;62.49;96410.75;2059709;28;20841;-65
2022/11/24 14:36:44;;;;;;;7.10;1.55;;;;;;;11.35;62.68;96409.66;2059823;28;20230;-65
2022/11/24 14:37:45;;;;;;;14.95;2.50;;;;;;;11.51;62.38;96423.63;2059296;28;20204;-65
2022/11/24 14:38:47;;;;;;;14.93;1.85;;;;;;;11.10;62.85;96408.31;2060378;28;20205;-65
2022/11/24 14:39:52;;;;;;;9.68;1.75;;;;;;;11.05;63.03;96418.16;2055288;28;20699;-65
2022/11/24 14:40:54;;;;;;;11.40;2.05;;;;;;;10.77;62.83;96412.53;2057124;28;20215;-65
2022/11/24 14:42:20;;;;;;;12.77;2.08;;;;;;;10.68;63.34;96425.16;2060136;28;20208;-65
2022/11/24 14:43:31;;;;;;;6.22;2.00;;;;;;;10.60;63.54;96418.56;2059838;28;20200;-65
2022/11/24 14:44:38;;;;;;;11.32;1.70;;;;;;;10.72;63.70;96417.13;2065646;28;20226;-65
2022/11/24 14:46:08;;;;;;;8.63;1.90;;;;;;;10.70;63.74;96418.13;2065462;28;20233;-66
2022/11/24 14:47:30;;;;;;;14.68;2.95;;;;;;;10.66;63.95;96419.19;2059363;28;20196;-65
2022/11/24 14:48:39;;;;;;;10.25;2.28;;;;;;;10.64;63.95;96416.66;2059535;28;20284;-65
2022/11/24 14:49:42;;;;;;;10.55;2.05;;;;;;;10.59;64.01;96419.50;2057377;28;20219;-65
2022/11/24 14:50:43;;;;;;;10.60;1.92;;;;;;;10.54;64.36;96424.09;2055638;28;20648;-65
2022/11/24 14:51:53;;;;;;;17.02;3.13;;;;;;;10.63;64.22;96420.19;2058870;28;20717;-65
2022/11/24 14:52:57;;;;;;;10.57;1.98;;;;;;;10.42;64.44;96419.44;2057837;28;20203;-65
2022/11/24 14:54:01;;;;;;;13.77;2.40;;;;;;;10.35;64.68;96425.84;2058929;28;20305;-65
2022/11/24 14:55:03;;;;;;;8.43;1.80;;;;;;;10.26;64.75;96409.72;2059255;28;20226;-66
2022/11/24 14:56:32;;;;;;;11.60;2.35;;;;;;;10.24;64.66;96424.59;2060141;28;20203;-65
2022/11/24 14:57:36;;;;;;;7.65;1.77;;;;;;;10.10;65.26;96413.94;2059389;28;20195;-65
2022/11/24 14:58:37;;;;;;;10.88;2.03;;;;;;;10.12;65.56;96425.19;2066494;28;20284;-65
2022/11/24 14:59:42;;;;;;;14.57;2.40;;;;;;;10.08;64.81;96421.00;2064640;28;20278;-65
2022/11/24 15:00:44;;;;;;;11.60;2.08;;;;;;;10.02;65.42;96418.66;2059183;28;20334;-66
2022/11/24 15:01:46;;;;;;;23.10;2.95;;;;;;;10.13;65.23;96421.63;2055552;28;20200;-65
2022/11/24 15:02:52;;;;;;;7.60;1.92;;;;;;;10.08;65.26;96434.03;2057789;28;20234;-65
2022/11/24 15:04:13;;;;;;;10.27;2.20;;;;;;;10.04;65.39;96429.88;2057362;28;20207;-66
2022/11/24 15:05:55;;;;;;;15.45;2.40;;;;;;;10.16;65.33;96433.69;2059152;28;20276;-65
2022/11/24 15:07:24;;;;;;;9.90;2.00;;;;;;;10.20;65.66;96422.22;2061683;28;20208;-65
2022/11/24 15:08:36;;;;;;;11.75;2.75;;;;;;;10.19;65.74;96430.94;2059957;28;20198;-66
2022/11/24 15:09:47;;;;;;;11.10;2.40;;;;;;;10.23;65.90;96428.13;2058680;28;20725;-66
2022/11/24 15:10:59;;;;;;;13.88;2.50;;;;;;;10.21;66.06;96426.47;2058729;28;20242;-66
2022/11/24 15:12:06;;;;;;;13.57;2.55;;;;;;;10.28;65.89;96425.28;2059396;28;20857;-65
2022/11/24 15:13:19;;;;;;;8.45;2.50;;;;;;;10.08;65.92;96429.69;2058648;28;20211;-65
2022/11/24 15:14:37;;;;;;;15.50;4.30;;;;;;;9.93;66.62;96436.44;2057204;28;21404;-65
2022/11/24 15:15:38;;;;;;;9.82;2.95;;;;;;;9.69;67.55;96429.72;2059895;28;20546;-67
2022/11/24 15:16:40;;;;;;;9.43;3.22;;;;;;;9.62;67.46;96429.13;2060087;28;20203;-67
2022/11/24 15:18:01;;;;;;;17.00;3.75;;;;;;;9.42;68.02;96433.47;2060352;28;20230;-70
2022/11/24 15:19:05;;;;;;;14.10;4.07;;;;;;;9.30;68.59;96442.66;2058083;28;20204;-67
2022/11/24 15:20:15;;;;;;;15.85;3.45;;;;;;;9.11;69.02;96431.34;2068552;28;20412;-68
2022/11/24 15:21:29;;;;;;;13.95;3.75;;;;;;;8.96;70.32;96444.09;2066474;28;20210;-67
2022/11/24 15:22:34;;;;;;;14.70;3.85;;;;;;;8.77;70.68;96443.16;2060193;28;20198;-67
2022/11/24 15:23:39;;;;;;;8.65;3.15;;;;;;;8.45;71.41;96440.03;2066515;28;20248;-67
2022/11/24 15:24:52;;;;;;;10.18;3.90;;;;;;;8.26;72.16;96442.53;2065999;28;20309;-67
2022/11/24 15:26:00;;;;;;;12.27;3.22;;;;;;;8.06;72.60;96445.88;2059788;28;20228;-67
2022/11/24 15:27:01;;;;;;;9.25;2.63;;;;;;;7.96;73.41;96445.38;2065465;28;20299;-69
2022/11/24 15:28:03;;;;;;;13.63;2.80;;;;;;;7.82;73.05;96448.47;2067263;28;20240;-69
2022/11/24 15:29:04;;;;;;;10.35;3.05;;;;;;;7.64;73.87;96440.47;2057864;28;20204;-69
2022/11/24 15:30:10;;;;;;;9.13;3.17;;;;;;;7.59;73.71;96445.00;2059897;28;20214;-69
2022/11/24 15:31:13;;;;;;;8.85;1.90;;;;;;;7.48;74.16;96445.38;2058441;28;20228;-69
2022/11/24 15:32:15;;;;;;;19.50;2.83;;;;;;;7.43;74.66;96442.06;2058657;28;20205;-69
2022/11/24 15:33:18;;;;;;;11.73;2.58;;;;;;;7.37;74.70;96442.28;2057854;28;20238;-69
2022/11/24 15:34:19;;;;;;;10.18;2.75;;;;;;;7.34;74.76;96440.66;2059631;28;20960;-69
2022/11/24 15:35:23;;;;;;;13.18;3.50;;;;;;;7.30;75.09;96448.59;2058545;28;20206;-66
2022/11/24 15:36:25;;;;;;;19.33;3.72;;;;;;;7.20;75.08;96445.50;2058621;28;20197;-66
2022/11/24 15:37:26;;;;;;;12.00;2.85;;;;;;;7.14;75.07;96432.72;2055111;28;20209;-66
2022/11/24 15:38:34;;;;;;;14.93;2.90;;;;;;;7.15;75.26;96450.00;2059406;28;20425;-66
2022/11/24 15:39:35;;;;;;;9.73;2.40;;;;;;;7.12;75.60;96456.13;2059955;28;20688;-67
2022/11/24 15:40:38;;;;;;;16.13;4.97;;;;;;;7.09;75.64;96458.81;2061081;28;20668;-67
2022/11/24 15:41:40;;;;;;;13.02;3.40;;;;;;;7.06;75.43;96458.06;2067950;28;20230;-67
2022/11/24 15:42:48;;;;;;;14.90;3.95;;;;;;;7.02;76.10;96455.59;2068329;28;20203;-67
2022/11/24 15:43:49;;;;;;;12.90;3.65;;;;;;;7.01;75.95;96459.09;2060570;28;20595;-67
2022/11/24 15:44:51;;;;;;;18.42;4.32;;;;;;;7.00;75.92;96457.38;2067468;28;20274;-66
2022/11/24 15:45:52;;;;;;;23.15;5.20;;;;;;;6.92;75.98;96442.97;2069529;28;20251;-67
2022/11/24 15:46:54;;;;;;;22.73;5.03;;;;;;;6.88;75.56;96442.22;2061621;28;20713;-66
2022/11/24 15:47:55;;;;;;;15.05;4.45;;;;;;;6.83;76.04;96441.50;2056939;28;20204;-66
2022/11/24 15:48:57;;;;;;;21.48;3.80;;;;;;;6.81;76.17;96448.53;2060761;28;20196;-67
2022/11/24 15:49:58;;;;;;;8.13;3.25;;;;;;;6.84;76.56;96448.41;2060133;28;20235;-67
2022/11/24 15:51:01;;;;;;;15.07;3.30;;;;;;;6.77;76.51;96447.78;2056694;28;20244;-67
2022/11/24 15:52:05;;;;;;;20.33;4.43;;;;;;;6.79;76.65;96458.09;2058311;28;20597;-66
2022/11/24 15:53:17;;;;;;;16.00;2.70;;;;;;;6.68;77.48;96451.50;2061390;28;20237;-67
2022/11/24 15:54:19;;;;;;;10.75;2.45;;;;;;;6.58;77.39;96447.50;2059507;28;20212;-67
2022/11/24 15:55:21;;;;;;;18.75;3.97;;;;;;;6.60;77.54;96455.25;2059401;28;20546;-66
2022/11/24 15:56:30;;;;;;;14.13;4.57;;;;;;;6.53;78.20;96452.00;2061540;28;20239;-66
2022/11/24 15:57:32;;;;;;;16.75;3.40;;;;;;;6.46;77.96;96453.09;2057117;28;20646;-66
2022/11/24 15:58:34;;;;;;;10.55;2.88;;;;;;;6.44;78.34;96447.94;2058892;28;20741;-66
2022/11/24 15:59:39;;;;;;;12.00;3.28;;;;;;;6.42;78.68;96446.31;2059997;28;20631;-66
2022/11/24 16:00:42;;;;;;;20.70;8.57;;;;;;;6.42;78.56;96446.31;2060344;28;20214;-65
2022/11/24 16:01:47;;;;;;;20.45;5.43;;;;;;;6.39;78.15;96439.47;2059939;28;20204;-66
2022/11/24 16:02:48;;;;;;;12.75;4.13;;;;;;;6.41;78.05;96440.25;2060785;28;20242;-66
2022/11/24 16:03:50;;;;;;;22.77;5.53;;;;;;;6.44;77.77;96441.94;2061394;28;20237;-66
2022/11/24 16:04:54;;;;;;;16.75;5.80;;;;;;;6.45;78.42;96453.97;2058954;28;20271;-66
2022/11/24 16:05:56;;;;;;;24.70;6.53;;;;;;;6.38;78.23;96451.56;2062027;28;20199;-66
2022/11/24 16:06:57;;;;;;;28.75;7.10;;;;;;;6.34;78.55;96447.38;2056990;28;20295;-66